Time;durP1;ratioP1;P1;durP2;ratioP2;P2;SDS_P1;SDS_P2;PMS_P1;PMS_P2;Temp;Humidity;BMP_temperature;BMP_pressure;BME280_temperature;BME280_humidity;BME280_pressure;Samples;Min_cycle;Max_cycle;Signal;HPM_P1;HPM_P2
2023/05/21 00:01:22;;;;;;;11.38;3.83;;;14.60;99.90;;;;;;4988246;28;20054;-68
2023/05/21 00:03:49;;;;;;;10.38;3.72;;;14.60;99.90;;;;;;4944112;28;210032;-67
2023/05/21 00:06:15;;;;;;;8.20;3.63;;;14.60;99.90;;;;;;5001807;28;20061;-68
2023/05/21 00:08:42;;;;;;;9.38;4.10;;;14.60;99.90;;;;;;4934714;28;239156;-67
2023/05/21 00:11:08;;;;;;;10.07;3.92;;;14.60;99.90;;;;;;5000251;28;20034;-67
2023/05/21 00:13:34;;;;;;;10.65;4.05;;;14.60;99.90;;;;;;4957293;28;209069;-68
2023/05/21 00:16:00;;;;;;;10.75;4.10;;;14.60;99.90;;;;;;5026973;28;20442;-67
2023/05/21 00:18:27;;;;;;;12.95;3.90;;;14.60;99.90;;;;;;4953888;28;208136;-66
2023/05/21 00:20:53;;;;;;;11.57;4.10;;;14.60;99.90;;;;;;5023759;28;20045;-67
2023/05/21 00:23:20;;;;;;;12.87;4.10;;;14.60;99.90;;;;;;4931262;28;211878;-67
2023/05/21 00:25:46;;;;;;;11.00;4.13;;;14.50;99.90;;;;;;5030684;28;20045;-68
2023/05/21 00:28:12;;;;;;;11.30;4.20;;;14.50;99.90;;;;;;4951006;28;209918;-68
2023/05/21 00:30:39;;;;;;;9.98;4.22;;;14.50;99.90;;;;;;5006607;28;20484;-68
2023/05/21 00:33:05;;;;;;;12.77;4.37;;;14.50;99.90;;;;;;4938333;28;230760;-67
2023/05/21 00:35:31;;;;;;;11.02;4.50;;;14.50;99.90;;;;;;5004367;28;20047;-68
2023/05/21 00:37:58;;;;;;;12.45;4.50;;;14.50;99.90;;;;;;4984097;28;20872;-68
2023/05/21 00:40:24;;;;;;;12.30;4.30;;;14.50;99.90;;;;;;4974281;28;206542;-67
2023/05/21 00:42:50;;;;;;;9.70;4.00;;;14.50;99.90;;;;;;4984830;28;20062;-68
2023/05/21 00:45:16;;;;;;;13.63;4.07;;;14.50;99.90;;;;;;4956909;28;212282;-68
2023/05/21 00:47:42;;;;;;;8.88;3.90;;;14.50;99.90;;;;;;4984296;28;20045;-68
2023/05/21 00:50:10;;;;;;;9.63;3.97;;;14.40;99.90;;;;;;4942877;28;206331;-68
2023/05/21 00:52:40;;;;;;;10.10;4.40;;;14.40;99.90;;;;;;5004099;28;20086;-67
2023/05/21 00:55:07;;;;;;;9.82;4.22;;;14.40;99.90;;;;;;4969134;28;208185;-67
2023/05/21 00:57:36;;;;;;;11.05;4.20;;;14.40;99.90;;;;;;4985507;28;20050;-67
2023/05/21 01:00:05;;;;;;;11.60;4.30;;;14.40;99.90;;;;;;4941260;28;209673;-66
2023/05/21 01:02:33;;;;;;;10.82;4.15;;;14.40;99.90;;;;;;4984917;28;20061;-67
2023/05/21 01:04:59;;;;;;;11.93;4.28;;;14.30;99.90;;;;;;4968135;28;207910;-66
2023/05/21 01:07:25;;;;;;;13.52;4.25;;;14.40;99.90;;;;;;4996368;28;20054;-66
2023/05/21 01:09:53;;;;;;;9.82;4.05;;;14.40;99.90;;;;;;4962040;28;209339;-66
2023/05/21 01:12:20;;;;;;;12.60;4.65;;;14.30;99.90;;;;;;5003906;28;20049;-68
2023/05/21 01:14:48;;;;;;;14.10;4.35;;;14.30;99.90;;;;;;4973218;28;211106;-66
2023/05/21 01:17:15;;;;;;;11.50;4.72;;;14.30;99.90;;;;;;5003385;28;20617;-67
2023/05/21 01:19:43;;;;;;;16.30;4.70;;;14.30;99.90;;;;;;4956409;28;208707;-68
2023/05/21 01:22:13;;;;;;;9.93;4.20;;;14.20;99.90;;;;;;4993523;28;20400;-67
2023/05/21 01:24:40;;;;;;;11.50;4.57;;;14.20;99.90;;;;;;4963890;28;224625;-69
2023/05/21 01:27:06;;;;;;;12.63;4.72;;;14.20;99.90;;;;;;4981977;28;20050;-66
2023/05/21 01:29:32;;;;;;;10.00;4.68;;;14.20;99.90;;;;;;4959375;28;208150;-67
2023/05/21 01:32:15;;;;;;;11.07;4.53;;;14.20;99.90;;;;;;5009499;28;20053;-67
2023/05/21 01:35:28;;;;;;;10.50;4.75;;;14.10;99.90;;;;;;4972054;28;214926;-67
2023/05/21 01:37:57;;;;;;;11.60;4.60;;;14.10;99.90;;;;;;4981636;28;20594;-70
2023/05/21 01:40:33;;;;;;;11.25;5.18;;;14.10;99.90;;;;;;4912514;28;208776;-67
2023/05/21 01:43:01;;;;;;;11.68;4.63;;;14.10;99.90;;;;;;4959691;28;20058;-66
2023/05/21 01:45:30;;;;;;;14.93;5.25;;;14.10;99.90;;;;;;4925052;28;20051;-67
2023/05/21 01:47:57;;;;;;;10.50;4.30;;;14.00;99.90;;;;;;4983339;28;20065;-68
2023/05/21 01:50:24;;;;;;;11.52;5.38;;;14.00;99.90;;;;;;4910781;28;104526;-68
2023/05/21 01:52:53;;;;;;;11.50;4.97;;;14.00;99.90;;;;;;4981859;28;20050;-67
2023/05/21 01:55:23;;;;;;;12.60;5.32;;;14.00;99.90;;;;;;4904277;28;162191;-67
2023/05/21 01:57:54;;;;;;;11.90;4.93;;;14.00;99.90;;;;;;4967036;28;20058;-67
2023/05/21 02:00:21;;;;;;;;;;;13.90;99.90;;;;;;4892081;28;206229;-67
2023/05/21 02:02:47;;;;;;;12.90;5.30;;;13.90;99.90;;;;;;4970643;28;19918;-67
2023/05/21 02:05:13;;;;;;;12.85;5.43;;;13.90;99.90;;;;;;4902178;28;206815;-68
2023/05/21 02:07:39;;;;;;;10.05;4.90;;;13.90;99.90;;;;;;4965408;28;20564;-68
2023/05/21 02:10:06;;;;;;;12.60;5.18;;;13.90;99.90;;;;;;4953563;28;223917;-67
2023/05/21 02:12:32;;;;;;;11.73;4.97;;;13.90;99.90;;;;;;5005783;28;20056;-67
2023/05/21 02:14:58;;;;;;;11.40;5.10;;;13.90;99.90;;;;;;4950861;28;211631;-68
2023/05/21 02:17:25;;;;;;;12.48;5.70;;;13.90;99.90;;;;;;4984522;28;20114;-67
2023/05/21 02:19:51;;;;;;;11.63;5.50;;;13.80;99.90;;;;;;4963210;28;210012;-67
2023/05/21 02:22:17;;;;;;;11.95;5.50;;;13.80;99.90;;;;;;4988854;28;20058;-67
2023/05/21 02:24:44;;;;;;;13.43;5.03;;;13.80;99.90;;;;;;4938435;28;207152;-67
2023/05/21 02:27:12;;;;;;;11.98;5.20;;;13.80;99.90;;;;;;4983633;28;20069;-67
2023/05/21 02:29:38;;;;;;;11.93;5.65;;;13.80;99.90;;;;;;4948683;28;209129;-68
2023/05/21 02:32:05;;;;;;;13.45;5.97;;;13.80;99.90;;;;;;4985006;28;20408;-68
2023/05/21 02:34:31;;;;;;;12.70;5.30;;;13.80;99.90;;;;;;4971102;28;207400;-69
2023/05/21 02:36:58;;;;;;;13.73;5.88;;;13.80;99.90;;;;;;4999402;28;20057;-68
2023/05/21 02:39:25;;;;;;;13.30;5.85;;;13.80;99.90;;;;;;4952762;28;206710;-67
2023/05/21 02:41:51;;;;;;;10.85;6.07;;;13.70;99.90;;;;;;4986891;28;20054;-66
2023/05/21 02:44:19;;;;;;;11.80;5.75;;;13.70;99.90;;;;;;4944602;28;225553;-67
2023/05/21 02:46:45;;;;;;;10.75;5.47;;;13.70;99.90;;;;;;5004878;28;20142;-67
2023/05/21 02:49:11;;;;;;;12.48;5.80;;;13.70;99.90;;;;;;4957472;28;208948;-67
2023/05/21 02:51:37;;;;;;;12.50;5.68;;;13.70;99.90;;;;;;5004673;28;20046;-67
2023/05/21 02:54:03;;;;;;;14.00;6.20;;;13.60;99.90;;;;;;4964658;28;208284;-67
2023/05/21 02:56:29;;;;;;;10.90;5.97;;;13.60;99.90;;;;;;5015085;28;20692;-68
2023/05/21 02:58:55;;;;;;;13.55;6.28;;;13.60;99.90;;;;;;4944375;28;212624;-67
2023/05/21 03:01:22;;;;;;;13.55;6.30;;;13.60;99.90;;;;;;5002949;28;20741;-68
2023/05/21 03:03:48;;;;;;;13.30;6.28;;;13.60;99.90;;;;;;4941868;28;227289;-69
2023/05/21 03:06:15;;;;;;;13.80;6.60;;;13.60;99.90;;;;;;5012495;28;20130;-68
2023/05/21 03:08:41;;;;;;;14.82;6.45;;;13.60;99.90;;;;;;4964215;28;205511;-66
2023/05/21 03:11:07;;;;;;;14.18;6.38;;;13.60;99.90;;;;;;5013007;28;20076;-67
2023/05/21 03:13:33;;;;;;;13.00;6.13;;;13.60;99.90;;;;;;4950307;28;209543;-67
2023/05/21 03:15:59;;;;;;;12.38;6.55;;;13.60;99.90;;;;;;5007314;28;20050;-67
2023/05/21 03:18:25;;;;;;;12.98;6.60;;;13.60;99.90;;;;;;4934980;28;208774;-69
2023/05/21 03:20:51;;;;;;;16.10;6.55;;;13.60;99.90;;;;;;5021864;28;20427;-69
2023/05/21 03:23:17;;;;;;;14.32;6.30;;;13.60;99.90;;;;;;4939572;28;207689;-67
2023/05/21 03:25:44;;;;;;;15.10;6.70;;;13.60;99.90;;;;;;5028588;28;20065;-68
2023/05/21 03:28:10;;;;;;;12.20;6.50;;;13.60;99.90;;;;;;4944514;28;209760;-67
2023/05/21 03:30:37;;;;;;;13.48;6.38;;;13.60;99.90;;;;;;5015235;28;20049;-67
2023/05/21 03:33:03;;;;;;;12.45;6.32;;;13.50;99.90;;;;;;4967804;28;208405;-68
2023/05/21 03:35:29;;;;;;;16.08;6.22;;;13.50;99.90;;;;;;5005482;28;20050;-68
2023/05/21 03:37:55;;;;;;;14.05;6.53;;;13.50;99.90;;;;;;5016264;28;20061;-67
2023/05/21 03:40:22;;;;;;;12.75;6.35;;;13.50;99.90;;;;;;4964118;28;208541;-67
2023/05/21 03:42:48;;;;;;;14.75;6.43;;;13.50;99.90;;;;;;4986495;28;20054;-67
2023/05/21 03:45:14;;;;;;;15.90;6.68;;;13.50;99.90;;;;;;4954829;28;207579;-67
2023/05/21 03:47:41;;;;;;;13.27;6.38;;;13.50;99.90;;;;;;4982420;28;20504;-68
2023/05/21 03:50:08;;;;;;;12.82;6.40;;;13.50;99.90;;;;;;4941933;28;212951;-68
2023/05/21 03:52:35;;;;;;;12.93;6.40;;;13.40;99.90;;;;;;4987717;28;20050;-67
2023/05/21 03:55:01;;;;;;;11.60;6.25;;;13.40;99.90;;;;;;4975306;28;210232;-66
2023/05/21 03:57:27;;;;;;;13.25;6.03;;;13.40;99.90;;;;;;5002447;28;20060;-67
2023/05/21 03:59:53;;;;;;;13.30;6.30;;;13.50;99.90;;;;;;4959170;28;208429;-67
2023/05/21 04:02:20;;;;;;;13.75;6.50;;;13.50;99.90;;;;;;5000227;28;20050;-67
2023/05/21 04:04:46;;;;;;;15.15;6.30;;;13.40;99.90;;;;;;4981591;28;209264;-66
2023/05/21 04:07:14;;;;;;;13.35;6.60;;;13.40;99.90;;;;;;5007026;28;20045;-67
2023/05/21 04:09:40;;;;;;;14.75;6.55;;;13.40;99.90;;;;;;4949396;28;209681;-67
2023/05/21 04:12:07;;;;;;;15.25;6.22;;;13.40;99.90;;;;;;4990586;28;20066;-65
2023/05/21 04:14:33;;;;;;;15.50;6.93;;;13.40;99.90;;;;;;4954630;28;209945;-67
2023/05/21 04:17:03;;;;;;;13.38;6.22;;;13.40;99.90;;;;;;4991763;28;20054;-66
2023/05/21 04:19:29;;;;;;;16.95;6.68;;;13.40;99.90;;;;;;4958711;28;224203;-67
2023/05/21 04:21:56;;;;;;;13.35;6.43;;;13.40;99.90;;;;;;5007545;28;20582;-66
2023/05/21 04:24:23;;;;;;;15.75;6.35;;;13.40;99.90;;;;;;4974245;28;207887;-68
2023/05/21 04:26:49;;;;;;;13.93;6.38;;;13.50;99.90;;;;;;4994103;28;20054;-69
2023/05/21 04:29:20;;;;;;;13.07;6.30;;;13.50;99.90;;;;;;4948246;28;207648;-66
2023/05/21 04:31:48;;;;;;;13.90;6.57;;;13.50;99.90;;;;;;4992122;28;20057;-67
2023/05/21 04:34:18;;;;;;;17.20;6.78;;;13.60;99.90;;;;;;4960015;28;208025;-67
2023/05/21 04:36:45;;;;;;;13.73;6.10;;;13.50;99.90;;;;;;5009504;28;20131;-67
2023/05/21 04:39:11;;;;;;;15.32;6.35;;;13.50;99.90;;;;;;4970249;28;211038;-67
2023/05/21 04:41:38;;;;;;;12.85;6.47;;;13.60;99.90;;;;;;5021414;28;20068;-67
2023/05/21 04:44:08;;;;;;;15.23;6.65;;;13.60;99.90;;;;;;4969143;28;209928;-67
2023/05/21 04:46:34;;;;;;;18.80;6.60;;;13.60;99.90;;;;;;4999229;28;20062;-67
2023/05/21 04:49:03;;;;;;;12.27;6.07;;;13.60;99.90;;;;;;4956770;28;207587;-67
2023/05/21 04:51:30;;;;;;;13.65;6.38;;;13.60;99.90;;;;;;5024433;28;20514;-65
2023/05/21 04:53:57;;;;;;;12.93;6.40;;;13.60;99.90;;;;;;4968626;28;207845;-66
2023/05/21 04:56:26;;;;;;;13.98;6.60;;;13.70;99.90;;;;;;5012962;28;20108;-67
2023/05/21 04:58:55;;;;;;;14.10;6.22;;;13.80;99.90;;;;;;4936228;28;207618;-67
2023/05/21 05:01:25;;;;;;;14.32;6.32;;;13.80;99.90;;;;;;5000191;28;20408;-67
2023/05/21 05:03:52;;;;;;;12.90;6.18;;;13.80;99.90;;;;;;4961570;28;207234;-67
2023/05/21 05:06:18;;;;;;;13.70;6.28;;;13.70;99.90;;;;;;5018998;28;20043;-67
2023/05/21 05:08:47;;;;;;;13.98;6.38;;;13.80;99.90;;;;;;4948045;28;208322;-66
2023/05/21 05:11:13;;;;;;;17.67;6.43;;;13.80;99.90;;;;;;5022301;28;20050;-67
2023/05/21 05:13:42;;;;;;;14.85;6.18;;;13.90;99.90;;;;;;4937927;28;207221;-67
2023/05/21 05:16:09;;;;;;;12.32;6.32;;;13.90;99.90;;;;;;5007602;28;20836;-67
2023/05/21 05:18:35;;;;;;;14.15;5.97;;;13.90;99.90;;;;;;4929018;28;210310;-68
2023/05/21 05:21:01;;;;;;;15.60;5.70;;;14.00;99.90;;;;;;4980682;28;20421;-67
2023/05/21 05:23:27;;;;;;;15.15;6.68;;;14.00;99.90;;;;;;4934194;28;216582;-68
2023/05/21 05:25:53;;;;;;;14.20;6.10;;;14.00;99.90;;;;;;5009596;28;20144;-66
2023/05/21 05:28:20;;;;;;;14.15;6.05;;;14.10;99.90;;;;;;4932898;28;209478;-66
2023/05/21 05:30:46;;;;;;;13.48;5.70;;;14.10;99.90;;;;;;5016396;28;20062;-67
2023/05/21 05:33:12;;;;;;;12.53;5.77;;;14.10;99.90;;;;;;4935348;28;208619;-66
2023/05/21 05:35:38;;;;;;;14.88;6.25;;;14.20;99.90;;;;;;5012096;28;20059;-67
2023/05/21 05:38:04;;;;;;;12.45;5.95;;;14.20;99.90;;;;;;4939310;28;208090;-67
2023/05/21 05:40:30;;;;;;;12.90;5.53;;;14.20;99.90;;;;;;5030901;28;20061;-67
2023/05/21 05:42:56;;;;;;;13.23;5.78;;;14.30;99.90;;;;;;5002519;28;20400;-68
2023/05/21 05:45:24;;;;;;;14.40;5.47;;;14.30;99.90;;;;;;4974141;28;223576;-68
2023/05/21 05:47:50;;;;;;;15.38;6.00;;;14.40;99.90;;;;;;5003573;28;20062;-66
2023/05/21 05:50:16;;;;;;;13.55;5.72;;;14.40;99.90;;;;;;4970980;28;238355;-67
2023/05/21 05:52:42;;;;;;;15.10;5.57;;;14.60;99.90;;;;;;5004611;28;20053;-67
2023/05/21 05:55:10;;;;;;;13.20;5.72;;;14.70;99.90;;;;;;4953233;28;211987;-67
2023/05/21 05:57:36;;;;;;;13.65;5.38;;;14.80;99.90;;;;;;4984070;28;20050;-67
2023/05/21 06:00:08;;;;;;;12.20;5.38;;;14.90;99.90;;;;;;4925943;28;207974;-68
2023/05/21 06:02:34;;;;;;;14.15;5.50;;;14.90;99.90;;;;;;4990546;28;20595;-68
2023/05/21 06:05:00;;;;;;;12.32;5.00;;;15.00;99.90;;;;;;4978244;28;216393;-67
2023/05/21 06:07:26;;;;;;;11.93;5.18;;;15.10;99.90;;;;;;4990864;28;20531;-67
2023/05/21 06:09:52;;;;;;;11.88;5.38;;;15.20;99.90;;;;;;4966003;28;212829;-67
2023/05/21 06:12:18;;;;;;;11.73;5.03;;;15.30;99.90;;;;;;5007574;28;20049;-68
2023/05/21 06:14:46;;;;;;;11.82;5.35;;;15.30;99.90;;;;;;4959263;28;208024;-68
2023/05/21 06:17:12;;;;;;;12.30;5.18;;;15.30;99.90;;;;;;4984393;28;20051;-67
2023/05/21 06:19:38;;;;;;;11.70;5.13;;;15.20;99.90;;;;;;4971395;28;143182;-67
2023/05/21 06:22:04;;;;;;;12.93;4.97;;;15.20;99.90;;;;;;5033370;28;20061;-67
2023/05/21 06:24:30;;;;;;;15.70;5.20;;;15.20;99.90;;;;;;4971599;28;213675;-67
2023/05/21 06:26:56;;;;;;;11.20;4.88;;;15.20;99.90;;;;;;4995753;28;20458;-66
2023/05/21 06:29:22;;;;;;;14.27;5.35;;;15.20;99.90;;;;;;4949280;28;207962;-66
2023/05/21 06:31:49;;;;;;;11.68;5.07;;;15.20;99.90;;;;;;5019311;28;20050;-66
2023/05/21 06:34:15;;;;;;;13.38;5.00;;;15.10;99.90;;;;;;4963762;28;209410;-67
2023/05/21 06:36:41;;;;;;;12.63;5.32;;;15.20;99.90;;;;;;4997109;28;20058;-67
2023/05/21 06:39:07;;;;;;;12.95;4.90;;;15.30;99.90;;;;;;4949258;28;209626;-67
2023/05/21 06:41:33;;;;;;;12.57;5.00;;;15.30;99.90;;;;;;5014329;28;20058;-67
2023/05/21 06:43:59;;;;;;;12.25;5.40;;;15.40;99.90;;;;;;4967737;28;207557;-68
2023/05/21 06:46:25;;;;;;;13.23;5.43;;;15.40;99.90;;;;;;5005605;28;20054;-67
2023/05/21 06:48:52;;;;;;;13.15;5.57;;;15.50;99.90;;;;;;4957685;28;205785;-68
2023/05/21 06:51:18;;;;;;;11.48;5.28;;;15.50;99.90;;;;;;5001761;28;20503;-66
2023/05/21 06:53:44;;;;;;;12.30;5.40;;;15.40;99.90;;;;;;4942672;28;207085;-68
2023/05/21 06:56:11;;;;;;;12.13;5.03;;;15.40;99.90;;;;;;5001353;28;20065;-67
2023/05/21 06:58:37;;;;;;;14.23;5.15;;;15.40;99.90;;;;;;4927425;28;210564;-67
2023/05/21 07:01:04;;;;;;;14.95;5.10;;;15.40;99.90;;;;;;5007999;28;20054;-67
2023/05/21 07:03:30;;;;;;;11.10;4.75;;;15.50;99.90;;;;;;4936679;28;209486;-67
2023/05/21 07:05:56;;;;;;;14.43;5.75;;;15.60;99.90;;;;;;5013607;28;20061;-68
2023/05/21 07:08:23;;;;;;;11.57;5.00;;;15.70;99.90;;;;;;4932010;28;207488;-67
2023/05/21 07:10:49;;;;;;;13.48;4.95;;;15.80;99.90;;;;;;4975917;28;20415;-68
2023/05/21 07:13:15;;;;;;;11.68;4.85;;;15.80;99.90;;;;;;4934340;28;210908;-67
2023/05/21 07:15:41;;;;;;;13.30;4.53;;;15.90;99.90;;;;;;5014267;28;20535;-67
2023/05/21 07:18:07;;;;;;;11.95;5.22;;;16.10;99.90;;;;;;4933131;28;210625;-68
2023/05/21 07:20:33;;;;;;;11.15;5.25;;;16.30;99.90;;;;;;5010724;28;20054;-67
2023/05/21 07:22:59;;;;;;;11.77;4.85;;;16.30;99.90;;;;;;4972709;28;207933;-67
2023/05/21 07:25:25;;;;;;;13.45;4.93;;;16.30;99.90;;;;;;4968774;28;208085;-68
2023/05/21 07:27:52;;;;;;;12.45;4.88;;;16.20;99.90;;;;;;5005249;28;20455;-67
2023/05/21 07:30:18;;;;;;;14.45;5.00;;;16.30;99.90;;;;;;4958972;28;212987;-68
2023/05/21 07:32:44;;;;;;;13.25;4.53;;;16.40;99.90;;;;;;5017984;28;20055;-67
2023/05/21 07:35:10;;;;;;;12.98;5.00;;;16.50;99.90;;;;;;4962481;28;218573;-67
2023/05/21 07:37:37;;;;;;;12.55;4.70;;;16.60;99.90;;;;;;4989941;28;20384;-68
2023/05/21 07:40:05;;;;;;;10.85;4.68;;;16.70;99.90;;;;;;4972785;28;210375;-67
2023/05/21 07:42:31;;;;;;;14.68;4.50;;;16.80;99.90;;;;;;4984326;28;20386;-67
2023/05/21 07:44:57;;;;;;;12.40;5.10;;;16.90;99.90;;;;;;4963016;28;208689;-68
2023/05/21 07:47:23;;;;;;;11.80;4.78;;;17.00;99.90;;;;;;5005779;28;20062;-67
2023/05/21 07:49:49;;;;;;;12.77;4.70;;;17.10;99.90;;;;;;4950534;28;207532;-68
2023/05/21 07:52:15;;;;;;;13.15;4.70;;;17.10;99.90;;;;;;4986425;28;20057;-69
2023/05/21 07:54:41;;;;;;;10.95;4.57;;;17.30;99.90;;;;;;4951219;28;208568;-69
2023/05/21 07:57:07;;;;;;;11.10;4.53;;;17.40;99.90;;;;;;4989663;28;20076;-70
2023/05/21 07:59:33;;;;;;;12.13;5.05;;;17.50;99.90;;;;;;4937865;28;211746;-69
2023/05/21 08:01:59;;;;;;;12.15;5.05;;;17.50;99.90;;;;;;4991667;28;20050;-69
2023/05/21 08:04:26;;;;;;;11.93;4.78;;;17.60;99.90;;;;;;4962842;28;208184;-68
2023/05/21 08:06:52;;;;;;;12.07;5.10;;;17.50;99.90;;;;;;5010907;28;20050;-68
2023/05/21 08:09:18;;;;;;;16.67;5.15;;;17.60;99.90;;;;;;4969600;28;211201;-68
2023/05/21 08:11:45;;;;;;;13.90;5.10;;;17.70;99.90;;;;;;4998927;28;20061;-69
2023/05/21 08:14:11;;;;;;;12.50;5.55;;;17.90;99.90;;;;;;4950889;28;208015;-69
2023/05/21 08:16:37;;;;;;;12.60;5.65;;;18.20;99.90;;;;;;5003545;28;20427;-70
2023/05/21 08:19:03;;;;;;;10.77;5.25;;;18.30;99.90;;;;;;4953658;28;209346;-69
2023/05/21 08:21:31;;;;;;;11.45;4.93;;;18.50;99.90;;;;;;5004888;28;20054;-69
2023/05/21 08:23:59;;;;;;;11.32;4.57;;;18.50;99.90;;;;;;4957831;28;208438;-70
2023/05/21 08:26:25;;;;;;;11.00;4.95;;;18.50;99.90;;;;;;5012341;28;20046;-70
2023/05/21 08:28:51;;;;;;;13.20;5.32;;;18.60;99.90;;;;;;4965871;28;208437;-68
2023/05/21 08:31:18;;;;;;;10.68;4.90;;;18.70;99.90;;;;;;5027539;28;20060;-69
2023/05/21 08:33:51;;;;;;;10.98;5.25;;;19.10;99.90;;;;;;4961795;28;208174;-69
2023/05/21 08:36:17;;;;;;;11.68;5.03;;;19.30;99.90;;;;;;5018189;28;20054;-69
2023/05/21 08:38:43;;;;;;;12.13;5.05;;;19.50;99.90;;;;;;4961646;28;220566;-69
2023/05/21 08:41:11;;;;;;;10.63;5.00;;;19.70;99.90;;;;;;5025246;28;20427;-69
2023/05/21 08:43:38;;;;;;;11.80;5.38;;;19.80;99.90;;;;;;4956512;28;208396;-69
2023/05/21 08:46:06;;;;;;;10.50;4.47;;;20.20;99.90;;;;;;5015936;28;20061;-69
2023/05/21 08:48:35;;;;;;;11.98;5.10;;;20.10;99.90;;;;;;4993030;28;159991;-69
2023/05/21 08:51:02;;;;;;;13.98;5.28;;;19.80;99.90;;;;;;4997808;28;20148;-69
2023/05/21 08:53:28;;;;;;;11.32;4.38;;;19.90;99.90;;;;;;4935316;28;209233;-68
2023/05/21 08:55:54;;;;;;;12.32;5.07;;;20.10;99.90;;;;;;4998513;28;20466;-69
2023/05/21 08:58:24;;;;;;;12.25;4.78;;;20.20;99.90;;;;;;4919681;28;222965;-69
2023/05/21 09:00:50;;;;;;;12.50;4.85;;;20.10;99.90;;;;;;5012296;28;20433;-70
2023/05/21 09:03:16;;;;;;;13.82;5.50;;;20.10;99.90;;;;;;4933907;28;212284;-69
2023/05/21 09:05:44;;;;;;;13.30;4.95;;;20.00;99.90;;;;;;5016366;28;20507;-68
2023/05/21 09:08:17;;;;;;;12.48;4.90;;;20.10;99.90;;;;;;4932133;28;228373;-70
2023/05/21 09:10:51;;;;;;;11.65;4.72;;;20.30;99.90;;;;;;5027043;28;20055;-69
2023/05/21 09:13:18;;;;;;;10.87;4.63;;;20.60;99.90;;;;;;4944018;28;210205;-70
2023/05/21 09:15:45;;;;;;;11.88;4.60;;;20.70;99.40;;;;;;5021186;28;20068;-69
2023/05/21 09:18:12;;;;;;;12.30;4.60;;;20.50;99.80;;;;;;4961187;28;209929;-70
2023/05/21 09:20:39;;;;;;;12.15;5.10;;;20.60;99.70;;;;;;5030052;28;20057;-71
2023/05/21 09:23:11;;;;;;;11.40;4.60;;;20.60;99.60;;;;;;4962424;28;209762;-70
2023/05/21 09:25:38;;;;;;;10.48;4.70;;;20.60;99.30;;;;;;5012321;28;20503;-71
2023/05/21 09:28:11;;;;;;;14.07;4.90;;;20.30;99.40;;;;;;4944291;28;209888;-70
2023/05/21 09:30:42;;;;;;;11.63;4.63;;;20.70;99.30;;;;;;5012089;28;20535;-71
2023/05/21 09:33:08;;;;;;;11.77;4.80;;;20.80;99.50;;;;;;4944336;28;217050;-70
2023/05/21 09:35:35;;;;;;;12.55;4.72;;;20.80;99.40;;;;;;5011400;28;20046;-70
2023/05/21 09:38:07;;;;;;;12.20;4.72;;;21.10;99.50;;;;;;4973617;28;207373;-70
2023/05/21 09:40:34;;;;;;;11.38;4.20;;;21.50;99.10;;;;;;4980592;28;20080;-70
2023/05/21 09:43:00;;;;;;;13.45;4.30;;;21.80;98.90;;;;;;4983148;28;209778;-68
2023/05/21 09:45:27;;;;;;;11.80;4.47;;;22.00;98.70;;;;;;4982628;28;102729;-70
2023/05/21 09:47:55;;;;;;;12.07;4.18;;;21.80;98.50;;;;;;4982515;28;20062;-71
2023/05/21 09:50:27;;;;;;;14.52;4.07;;;21.70;98.60;;;;;;4969544;28;206365;-70
2023/05/21 09:52:54;;;;;;;9.88;4.38;;;21.90;98.30;;;;;;5012050;28;20038;-70
2023/05/21 09:55:25;;;;;;;13.95;4.07;;;21.70;98.50;;;;;;4968386;28;220210;-67
2023/05/21 09:57:53;;;;;;;11.68;4.80;;;21.80;98.10;;;;;;4984714;28;20046;-69
2023/05/21 10:00:21;;;;;;;9.90;4.15;;;21.50;98.50;;;;;;4947971;28;211813;-67
2023/05/21 10:02:54;;;;;;;9.88;4.50;;;21.50;98.30;;;;;;4988989;28;20096;-65
2023/05/21 10:05:28;;;;;;;10.25;4.03;;;21.40;98.10;;;;;;4993154;28;212929;-67
2023/05/21 10:08:02;;;;;;;12.00;4.65;;;21.70;98.20;;;;;;4990407;28;20039;-68
2023/05/21 10:10:31;;;;;;;11.07;4.53;;;22.10;97.80;;;;;;4935941;28;20038;-65
2023/05/21 10:13:07;;;;;;;9.50;4.32;;;22.10;97.70;;;;;;4991311;28;20772;-67
2023/05/21 10:15:53;;;;;;;10.57;4.15;;;22.30;97.70;;;;;;4959372;28;118636;-68
2023/05/21 10:18:21;;;;;;;11.40;4.57;;;22.60;97.20;;;;;;4933171;28;209152;-68
2023/05/21 10:20:47;;;;;;;9.80;4.22;;;22.20;97.20;;;;;;4978794;28;20146;-68
2023/05/21 10:23:13;;;;;;;11.05;4.40;;;22.50;97.40;;;;;;4938606;28;215802;-69
2023/05/21 10:25:40;;;;;;;10.80;4.07;;;22.30;97.30;;;;;;5031405;28;20041;-68
2023/05/21 10:28:06;;;;;;;11.52;4.30;;;23.00;97.10;;;;;;4952009;28;207462;-68
2023/05/21 10:30:34;;;;;;;12.63;4.45;;;23.50;96.60;;;;;;5031424;28;20493;-68
2023/05/21 10:33:01;;;;;;;10.98;4.90;;;23.50;96.30;;;;;;4988518;28;207751;-68
2023/05/21 10:35:28;;;;;;;15.80;4.20;;;23.60;96.20;;;;;;4988179;28;207873;-69
2023/05/21 10:37:56;;;;;;;13.27;4.28;;;23.70;96.00;;;;;;4982093;28;20050;-67
2023/05/21 10:40:22;;;;;;;9.32;4.38;;;23.60;96.20;;;;;;4972608;28;257405;-67
2023/05/21 10:43:09;;;;;;;10.18;3.90;;;23.90;95.70;;;;;;4985020;28;20447;-68
2023/05/21 10:45:48;;;;;;;11.40;3.90;;;23.20;95.30;;;;;;4928937;28;20037;-68
2023/05/21 10:48:20;;;;;;;11.07;4.70;;;23.50;95.90;;;;;;4930247;28;231950;-69
2023/05/21 10:51:29;;;;;;;14.65;4.50;;;23.90;95.80;;;;;;5011999;28;20066;-68
2023/05/21 10:54:06;;;;;;;11.38;5.18;;;24.30;95.20;;;;;;4947921;28;211241;-71
2023/05/21 10:56:43;;;;;;;12.30;4.70;;;24.60;94.70;;;;;;5018973;28;20053;-71
2023/05/21 10:59:14;;;;;;;16.33;4.82;;;24.70;94.80;;;;;;4942136;28;209490;-70
2023/05/21 11:01:41;;;;;;;10.70;4.28;;;24.70;94.80;;;;;;4996315;28;20058;-72
2023/05/21 11:04:07;;;;;;;11.23;5.00;;;24.70;94.20;;;;;;4956906;28;206744;-71
2023/05/21 11:06:33;;;;;;;11.52;4.60;;;24.40;94.50;;;;;;5018846;28;20060;-70
2023/05/21 11:09:12;;;;;;;12.90;4.80;;;24.40;94.70;;;;;;4969373;28;209585;-70
2023/05/21 11:11:59;;;;;;;11.93;4.80;;;24.50;94.70;;;;;;5017874;28;20717;-70
2023/05/21 11:14:40;;;;;;;12.85;5.30;;;24.00;94.30;;;;;;4954968;28;207763;-69
2023/05/21 11:17:15;;;;;;;11.70;4.50;;;23.90;94.80;;;;;;4988134;28;20050;-70
2023/05/21 11:19:42;;;;;;;10.95;4.90;;;24.00;95.10;;;;;;4970544;28;207963;-72
2023/05/21 11:22:24;;;;;;;13.73;5.47;;;24.00;94.80;;;;;;5009944;28;20062;-70
2023/05/21 11:24:51;;;;;;;14.27;5.82;;;23.90;95.00;;;;;;4967675;28;207201;-70
2023/05/21 11:27:52;;;;;;;14.07;5.90;;;24.10;95.10;;;;;;4985957;28;20033;-71
2023/05/21 11:30:18;;;;;;;12.43;6.70;;;24.20;95.20;;;;;;4937284;28;207523;-69
2023/05/21 11:33:11;;;;;;;13.20;6.00;;;24.10;95.20;;;;;;5018481;28;20058;-71
2023/05/21 11:35:49;;;;;;;15.18;6.35;;;24.70;94.90;;;;;;4920079;28;233783;-70
2023/05/21 11:38:16;;;;;;;12.15;6.07;;;24.70;94.60;;;;;;4963409;28;209058;-68
2023/05/21 11:40:50;;;;;;;11.82;5.43;;;24.80;94.80;;;;;;5031993;28;20065;-70
2023/05/21 11:43:17;;;;;;;11.50;5.95;;;24.80;94.90;;;;;;4950716;28;230635;-69
2023/05/21 11:45:45;;;;;;;12.00;6.35;;;25.40;94.70;;;;;;5026756;28;20418;-69
2023/05/21 11:48:15;;;;;;;11.60;6.00;;;25.60;94.30;;;;;;4956090;28;207769;-71
2023/05/21 11:50:41;;;;;;;12.07;6.10;;;25.30;94.40;;;;;;5012735;28;20034;-70
2023/05/21 11:53:07;;;;;;;12.95;6.75;;;25.70;94.70;;;;;;4935509;28;206951;-70
2023/05/21 11:55:38;;;;;;;12.10;6.47;;;25.80;94.30;;;;;;5006715;28;20064;-69
2023/05/21 11:58:07;;;;;;;13.45;6.90;;;25.40;94.20;;;;;;4968847;28;209830;-72
2023/05/21 12:00:38;;;;;;;13.15;6.93;;;25.20;94.30;;;;;;4983224;28;130919;-70
2023/05/21 12:03:06;;;;;;;13.25;7.50;;;25.50;94.10;;;;;;4933087;28;211297;-70
2023/05/21 12:05:48;;;;;;;14.95;7.35;;;25.40;94.00;;;;;;5035846;28;20081;-72
2023/05/21 12:08:24;;;;;;;14.73;7.00;;;25.40;94.30;;;;;;4965642;28;210362;-73
2023/05/21 12:10:57;;;;;;;18.10;7.50;;;25.80;94.00;;;;;;5015752;28;20058;-71
2023/05/21 12:13:24;;;;;;;13.55;7.90;;;25.40;94.20;;;;;;4983156;28;215349;-70
2023/05/21 12:15:54;;;;;;;16.08;9.10;;;25.40;94.40;;;;;;5004602;28;20047;-71
2023/05/21 12:18:20;;;;;;;14.53;8.47;;;25.90;94.50;;;;;;4933076;28;213340;-70
2023/05/21 12:20:46;;;;;;;13.90;8.38;;;26.20;94.10;;;;;;4999461;28;20633;-72
2023/05/21 12:23:22;;;;;;;15.82;8.70;;;26.30;93.40;;;;;;4950853;28;207475;-70
2023/05/21 12:25:48;;;;;;;14.80;8.98;;;26.00;94.00;;;;;;5000014;28;20411;-71
2023/05/21 12:28:15;;;;;;;15.18;8.25;;;26.20;94.10;;;;;;4928952;28;229033;-71
2023/05/21 12:30:41;;;;;;;15.65;8.75;;;26.40;93.80;;;;;;4985887;28;20034;-71
2023/05/21 12:33:07;;;;;;;13.95;8.77;;;26.80;94.10;;;;;;4941688;28;207138;-70
2023/05/21 12:35:33;;;;;;;15.85;8.60;;;26.80;94.00;;;;;;5017740;28;20068;-70
2023/05/21 12:38:01;;;;;;;15.95;7.45;;;27.30;93.40;;;;;;4987991;28;218884;-71